Time;durP1;ratioP1;P1;durP2;ratioP2;P2;SDS_P1;SDS_P2;PMS_P1;PMS_P2;Temp;Humidity;BMP_temperature;BMP_pressure;BME280_temperature;BME280_humidity;BME280_pressure;Samples;Min_cycle;Max_cycle;Signal;HPM_P1;HPM_P2
2023/01/14 00:00:14;;;;;;;;;;;;;;;7.93;90.28;101203.09;21120663;27;19924;-60
2023/01/14 00:10:37;;;;;;;;;;;;;;;7.89;90.61;101211.75;21101404;27;19980;-60
2023/01/14 00:21:00;;;;;;;;;;;;;;;7.88;91.74;101210.88;21094000;27;19924;-60
2023/01/14 00:31:22;;;;;;;;;;;;;;;7.87;91.88;101226.38;21098470;27;19931;-60
2023/01/14 00:41:44;;;;;;;;;;;;;;;7.94;90.83;101235.72;21092588;27;19935;-60
2023/01/14 00:52:05;;;;;;;;;;;;;;;7.98;90.62;101227.09;21113920;27;19988;-60
2023/01/14 01:02:27;;;;;;;;;;;;;;;8.01;90.11;101229.59;21089946;27;20136;-61
2023/01/14 01:12:48;;;;;;;;;;;;;;;7.99;90.53;101233.94;21094001;27;19928;-60
2023/01/14 01:23:11;;;;;;;;;;;;;;;8.01;90.80;101247.66;21098524;27;19924;-60
2023/01/14 01:33:33;;;;;;;;;;;;;;;7.95;92.44;101283.78;21088167;27;19988;-59
2023/01/14 01:44:07;;;;;;;;;;;;;;;7.66;92.27;101291.00;21087317;27;19927;-59
2023/01/14 01:54:32;;;;;;;;;;;;;;;7.55;93.43;101303.13;21102503;27;20581;-60
2023/01/14 02:04:54;;;;;;;;;;;;;;;7.57;94.99;101303.97;21077730;28;19946;-60
2023/01/14 02:15:18;;;;;;;;;;;;;;;7.54;94.81;101286.00;21092398;28;19924;-60
2023/01/14 02:25:42;;;;;;;;;;;;;;;7.56;95.48;101287.69;21081436;28;19924;-61
2023/01/14 02:36:04;;;;;;;;;;;;;;;7.55;95.33;101298.84;21089771;28;19945;-60
2023/01/14 02:46:45;;;;;;;;;;;;;;;7.59;95.26;101291.94;21122201;22;20235;-60
2023/01/14 02:57:14;;;;;;;;;;;;;;;7.73;94.33;101284.91;21134465;27;20514;-60
2023/01/14 03:07:45;;;;;;;;;;;;;;;7.74;93.68;101284.06;21160420;27;20345;-60
2023/01/14 03:18:11;;;;;;;;;;;;;;;7.81;93.38;101285.69;21170477;27;19976;-60
2023/01/14 03:28:36;;;;;;;;;;;;;;;7.78;94.06;101275.44;21173253;27;19924;-61
2023/01/14 03:39:00;;;;;;;;;;;;;;;7.79;93.71;101280.56;21155664;27;20356;-63
2023/01/14 03:49:22;;;;;;;;;;;;;;;7.85;93.44;101271.91;21159268;27;19932;-61
2023/01/14 03:59:43;;;;;;;;;;;;;;;7.86;93.80;101289.06;21142761;27;20638;-61
2023/01/14 04:10:05;;;;;;;;;;;;;;;7.90;92.57;101298.47;21158452;27;19969;-61
2023/01/14 04:20:26;;;;;;;;;;;;;;;7.81;92.87;101285.69;21150731;27;20299;-61
2023/01/14 04:30:48;;;;;;;;;;;;;;;7.82;92.22;101282.25;21162177;27;20388;-61
2023/01/14 04:42:26;;;;;;;;;;;;;;;7.81;91.56;101285.69;21163525;27;20086;-61
2023/01/14 04:51:51;;;;;;;;;;;;;;;7.85;90.92;101284.78;21160376;27;19923;-61
2023/01/14 05:02:12;;;;;;;;;;;;;;;7.82;90.10;101277.94;21166442;27;19979;-61
2023/01/14 05:12:34;;;;;;;;;;;;;;;7.73;90.55;101272.03;21161213;27;20018;-61
2023/01/14 05:23:00;;;;;;;;;;;;;;;7.67;90.92;101260.06;21147378;27;19924;-61
2023/01/14 05:33:22;;;;;;;;;;;;;;;7.59;91.49;101245.59;21158712;27;19924;-61
2023/01/14 05:54:23;;;;;;;;;;;;;;;7.48;91.29;101207.09;21162878;27;19927;-61
2023/01/14 06:15:29;;;;;;;;;;;;;;;7.35;91.66;101187.50;21144221;28;19976;-61
2023/01/14 06:25:50;;;;;;;;;;;;;;;7.26;91.69;101166.16;21157095;28;19931;-61
2023/01/14 06:36:13;;;;;;;;;;;;;;;7.18;91.85;101158.50;21165499;27;19932;-61
2023/01/14 06:46:35;;;;;;;;;;;;;;;7.13;92.46;101163.72;21175836;27;19977;-61
2023/01/14 06:56:57;;;;;;;;;;;;;;;7.14;91.17;101160.28;21174878;27;19923;-61
2023/01/14 07:07:18;;;;;;;;;;;;;;;7.16;91.33;101119.09;21158607;27;19987;-61
2023/01/14 07:17:40;;;;;;;;;;;;;;;7.14;91.88;101090.81;21145607;27;20917;-61
2023/01/14 07:28:01;;;;;;;;;;;;;;;7.13;91.99;101098.53;21174284;27;19928;-61
2023/01/14 07:38:23;;;;;;;;;;;;;;;7.06;91.93;101092.63;21164719;27;20449;-61
2023/01/14 07:48:45;;;;;;;;;;;;;;;7.04;91.49;101073.78;21165179;27;20370;-61
2023/01/14 07:59:07;;;;;;;;;;;;;;;7.00;92.46;101066.97;21146982;27;19994;-61
2023/01/14 08:09:28;;;;;;;;;;;;;;;7.01;92.20;101047.25;21152945;27;19924;-61
2023/01/14 08:19:49;;;;;;;;;;;;;;;7.01;92.17;101024.94;21148126;27;20336;-61
2023/01/14 08:30:11;;;;;;;;;;;;;;;7.09;92.13;100999.09;21109272;27;19924;-61
2023/01/14 08:40:33;;;;;;;;;;;;;;;7.18;92.14;100972.41;21124209;27;19936;-60
2023/01/14 08:50:58;;;;;;;;;;;;;;;7.25;91.62;100953.44;21138986;27;19923;-60
2023/01/14 09:01:20;;;;;;;;;;;;;;;7.38;91.38;100924.09;21131519;27;19936;-61
2023/01/14 09:22:24;;;;;;;;;;;;;;;7.49;91.09;100855.25;21140707;27;19934;-61
2023/01/14 09:32:45;;;;;;;;;;;;;;;7.56;91.30;100846.53;21141125;27;20256;-61
2023/01/14 09:43:14;;;;;;;;;;;;;;;7.63;90.53;100837.81;21138150;27;19931;-61
2023/01/14 09:53:42;;;;;;;;;;;;;;;7.70;90.43;100811.09;21150360;27;19924;-61
2023/01/14 10:04:27;;;;;;;;;;;;;;;7.65;91.34;100780.28;21126111;27;19980;-61
2023/01/14 10:15:03;;;;;;;;;;;;;;;7.63;92.19;100752.88;22006836;22;19929;-57
2023/01/14 10:25:25;;;;;;;;;;;;;;;7.55;93.31;100711.81;20923847;28;19932;-56
2023/01/14 10:35:52;;;;;;;;;;;;;;;7.50;94.15;100667.28;20928341;28;20337;-56
2023/01/14 10:46:17;;;;;;;;;;;;;;;7.48;95.50;100616.72;20917539;28;19925;-56
2023/01/14 10:56:45;;;;;;;;;;;;;;;7.46;95.74;100577.28;20911237;28;20526;-57
2023/01/14 11:07:14;;;;;;;;;;;;;;;7.40;96.00;100528.53;20938544;28;19951;-56
2023/01/14 11:17:36;;;;;;;;;;;;;;;7.41;96.45;100483.88;20940119;28;19928;-57
2023/01/14 11:28:00;;;;;;;;;;;;;;;7.41;96.90;100453.00;20935071;28;20352;-56
2023/01/14 11:38:22;;;;;;;;;;;;;;;7.41;97.28;100429.84;20959680;28;19925;-56
2023/01/14 11:48:43;;;;;;;;;;;;;;;7.44;98.09;100373.13;20943741;28;19928;-57
2023/01/14 11:59:14;;;;;;;;;;;;;;;7.50;98.02;100357.53;20937205;28;19928;-57
2023/01/14 12:09:56;;;;;;;;;;;;;;;7.62;97.88;100290.28;20943178;28;19932;-57
2023/01/14 12:20:20;;;;;;;;;;;;;;;7.70;97.73;100231.72;20948916;28;19932;-57
2023/01/14 12:30:51;;;;;;;;;;;;;;;7.81;97.33;100198.78;20961464;28;19928;-57
2023/01/14 12:51:59;;;;;;;;;;;;;;;7.92;97.78;100101.44;20928239;28;19925;-58
2023/01/14 13:02:20;;;;;;;;;;;;;;;7.96;97.36;100051.50;20936156;28;19978;-56
2023/01/14 13:12:47;;;;;;;;;;;;;;;8.00;98.47;99999.00;20935608;28;20237;-58
2023/01/14 13:23:08;;;;;;;;;;;;;;;8.02;98.85;99966.31;20926852;28;19982;-56
2023/01/14 13:33:34;;;;;;;;;;;;;;;8.07;99.26;99934.34;20899551;28;19975;-57
2023/01/14 13:43:56;;;;;;;;;;;;;;;8.18;98.79;99884.16;20925941;28;19987;-56
2023/01/14 13:54:21;;;;;;;;;;;;;;;8.20;99.16;99831.69;20921469;28;19932;-57
2023/01/14 14:04:55;;;;;;;;;;;;;;;8.26;99.68;99794.59;20905691;28;19983;-56
2023/01/14 14:15:24;;;;;;;;;;;;;;;8.35;99.61;99774.44;20933944;28;19925;-56
2023/01/14 14:25:47;;;;;;;;;;;;;;;8.51;99.83;99747.19;20909341;28;20333;-56
2023/01/14 14:36:15;;;;;;;;;;;;;;;8.63;99.71;99738.97;20925446;28;19955;-58
2023/01/14 14:46:36;;;;;;;;;;;;;;;8.61;100.00;99699.50;20916334;28;19929;-57
2023/01/14 14:57:05;;;;;;;;;;;;;;;8.77;100.00;99677.34;20931134;28;19933;-56
2023/01/14 15:07:27;;;;;;;;;;;;;;;8.83;100.00;99653.88;20947691;28;19929;-57
2023/01/14 15:17:49;;;;;;;;;;;;;;;8.93;100.00;99639.72;20923649;28;19928;-56
2023/01/14 15:28:17;;;;;;;;;;;;;;;9.06;100.00;99621.97;20934186;28;20021;-57
2023/01/14 15:38:39;;;;;;;;;;;;;;;9.09;100.00;99614.09;20933682;28;19931;-58
2023/01/14 15:49:06;;;;;;;;;;;;;;;9.26;100.00;99582.38;20929153;28;19968;-57
2023/01/14 15:59:29;;;;;;;;;;;;;;;9.32;100.00;99567.44;20938454;28;19932;-57
2023/01/14 16:09:58;;;;;;;;;;;;;;;9.49;100.00;99551.19;20923996;28;20031;-56
2023/01/14 16:20:20;;;;;;;;;;;;;;;9.68;100.00;99539.94;20929719;28;20188;-56
2023/01/14 16:30:41;;;;;;;;;;;;;;;9.73;100.00;99519.03;20916926;28;20295;-56
2023/01/14 16:41:03;;;;;;;;;;;;;;;9.87;100.00;99516.66;20923034;28;19978;-55
2023/01/14 16:51:26;;;;;;;;;;;;;;;10.01;100.00;99501.31;20923758;28;19978;-54
2023/01/14 17:01:48;;;;;;;;;;;;;;;9.95;100.00;99486.09;20907011;28;19933;-57
2023/01/14 17:22:50;;;;;;;;;;;;;;;10.18;100.00;99444.50;20924969;28;19928;-55
2023/01/14 17:33:12;;;;;;;;;;;;;;;10.19;100.00;99451.31;20932697;28;19928;-60
2023/01/14 17:43:33;;;;;;;;;;;;;;;10.29;100.00;99428.44;20934130;28;20401;-57
2023/01/14 17:53:55;;;;;;;;;;;;;;;10.42;100.00;99411.38;20928649;28;19929;-56
2023/01/14 18:04:18;;;;;;;;;;;;;;;10.42;100.00;99421.72;20932033;28;20304;-56
2023/01/14 18:14:40;;;;;;;;;;;;;;;10.58;100.00;99407.91;20929062;28;19928;-57
2023/01/14 18:25:01;;;;;;;;;;;;;;;10.63;100.00;99411.06;20921445;28;20444;-57
2023/01/14 18:35:24;;;;;;;;;;;;;;;10.75;100.00;99399.25;20927099;28;20405;-56
2023/01/14 18:45:45;;;;;;;;;;;;;;;10.89;100.00;99397.56;20942715;28;19928;-56
2023/01/14 18:56:09;;;;;;;;;;;;;;;10.95;100.00;99373.94;20958798;28;20223;-56
2023/01/14 19:06:32;;;;;;;;;;;;;;;11.14;100.00;99340.94;20945042;28;19932;-58
2023/01/14 19:16:54;;;;;;;;;;;;;;;11.10;100.00;99339.44;20939195;28;19925;-56
2023/01/14 19:27:15;;;;;;;;;;;;;;;11.17;100.00;99357.22;20947039;28;19929;-57
2023/01/14 19:37:37;;;;;;;;;;;;;;;11.30;99.41;99340.09;20943261;28;19925;-58
2023/01/14 19:47:59;;;;;;;;;;;;;;;11.31;100.00;99337.41;20942789;28;19928;-56
2023/01/14 19:58:23;;;;;;;;;;;;;;;11.41;99.87;99329.94;20926607;28;20334;-57
2023/01/14 20:08:45;;;;;;;;;;;;;;;11.52;100.00;99337.94;20937271;28;19960;-56
2023/01/14 20:19:07;;;;;;;;;;;;;;;11.62;98.26;99359.78;20941791;28;19935;-58
2023/01/14 20:29:28;;;;;;;;;;;;;;;11.61;98.18;99413.34;20925482;28;19933;-56
2023/01/14 20:39:50;;;;;;;;;;;;;;;11.63;98.79;99423.66;20935919;28;20050;-55
2023/01/14 20:50:11;;;;;;;;;;;;;;;11.37;100.00;99504.56;20942773;28;20306;-57
2023/01/14 21:00:32;;;;;;;;;;;;;;;10.42;97.74;99501.88;20936885;28;20031;-56
2023/01/14 21:10:54;;;;;;;;;;;;;;;10.00;97.83;99540.97;20943518;28;20469;-55
2023/01/14 21:31:55;;;;;;;;;;;;;;;8.50;94.48;99624.34;20930173;28;19932;-55
2023/01/14 21:52:58;;;;;;;;;;;;;;;7.97;94.65;99661.66;20927545;28;19979;-57
2023/01/14 22:03:19;;;;;;;;;;;;;;;7.88;94.85;99644.00;20926518;28;19928;-56
2023/01/14 22:13:41;;;;;;;;;;;;;;;7.86;94.09;99630.34;20926812;28;20315;-56
2023/01/14 22:24:02;;;;;;;;;;;;;;;7.87;92.94;99637.19;20924800;28;19933;-58
2023/01/14 22:34:24;;;;;;;;;;;;;;;7.91;91.41;99633.59;20948337;28;20329;-57
2023/01/14 22:44:45;;;;;;;;;;;;;;;7.85;91.82;99636.41;20925685;28;20400;-57
2023/01/14 22:55:07;;;;;;;;;;;;;;;7.78;92.49;99624.66;20928250;28;19962;-57
2023/01/14 23:05:28;;;;;;;;;;;;;;;7.76;92.85;99629.03;20930943;28;19925;-57
2023/01/14 23:26:35;;;;;;;;;;;;;;;7.78;93.17;99652.97;20916080;28;19959;-57
2023/01/14 23:36:56;;;;;;;;;;;;;;;7.82;93.53;99639.91;20961020;28;19993;-57
2023/01/14 23:47:18;;;;;;;;;;;;;;;7.77;94.25;99651.28;20946673;28;20387;-58
2023/01/14 23:57:39;;;;;;;;;;;;;;;7.79;94.13;99654.66;20934642;28;19928;-57
